createdAt,value
2023-04-06T00:02:15.166Z,56.25
2023-04-06T00:04:46.791Z,55.19
2023-04-06T00:07:18.406Z,55.95
2023-04-06T00:09:50.062Z,55.55
2023-04-06T00:12:22.163Z,55.89
2023-04-06T00:14:53.782Z,55.57
2023-04-06T00:17:25.716Z,55.42
2023-04-06T00:19:57.361Z,55.27
2023-04-06T00:22:29.182Z,55.95
2023-04-06T00:25:01.092Z,56.31
2023-04-06T00:27:32.667Z,56.05
2023-04-06T00:30:08.406Z,56.00
2023-04-06T00:32:40.077Z,56.15
2023-04-06T00:35:12.628Z,56.01
2023-04-06T00:37:47.406Z,55.94
2023-04-06T00:40:19.254Z,56.61
2023-04-06T00:42:51.112Z,56.79
2023-04-06T00:45:22.751Z,56.67
2023-04-06T00:47:54.571Z,55.98
2023-04-06T00:50:26.367Z,56.10
2023-04-06T00:52:57.968Z,56.03
2023-04-06T00:55:30.151Z,55.95
2023-04-06T00:58:02.201Z,56.48
2023-04-06T01:00:34.230Z,57.28
2023-04-06T01:03:07.839Z,56.11
2023-04-06T01:05:41.621Z,56.05
2023-04-06T01:08:13.394Z,56.46
2023-04-06T01:10:45.193Z,56.08
2023-04-06T01:13:18.159Z,55.80
2023-04-06T01:15:50.365Z,56.18
2023-04-06T01:18:30.128Z,56.39
2023-04-06T01:21:02.436Z,56.52
2023-04-06T01:23:34.067Z,56.29
2023-04-06T01:26:05.678Z,56.24
2023-04-06T01:28:38.394Z,56.40
2023-04-06T01:31:10.852Z,56.36
2023-04-06T01:33:42.496Z,56.87
2023-04-06T01:36:14.127Z,56.96
2023-04-06T01:38:45.752Z,57.35
2023-04-06T01:41:17.408Z,57.36
2023-04-06T01:43:50.839Z,57.11
2023-04-06T01:46:22.715Z,56.86
2023-04-06T01:48:54.437Z,57.26
2023-04-06T01:51:26.808Z,57.12
2023-04-06T01:53:58.298Z,57.31
2023-04-06T01:56:29.917Z,57.64
2023-04-06T01:59:01.646Z,57.54
2023-04-06T02:01:33.230Z,57.94
2023-04-06T02:04:04.864Z,57.28
2023-04-06T02:06:36.551Z,57.43
2023-04-06T02:09:08.335Z,57.49
2023-04-06T02:11:40.394Z,57.56
2023-04-06T02:14:14.122Z,57.74
2023-04-06T02:16:45.736Z,57.91
2023-04-06T02:19:17.353Z,58.13
2023-04-06T02:21:48.857Z,58.27
2023-04-06T02:24:20.499Z,57.93
2023-04-06T02:26:52.262Z,58.30
2023-04-06T02:29:23.827Z,57.78
2023-04-06T02:31:55.823Z,58.15
2023-04-06T02:34:27.443Z,58.14
2023-04-06T02:36:59.116Z,58.15
2023-04-06T02:39:30.910Z,58.05
2023-04-06T02:42:02.568Z,58.59
2023-04-06T02:44:34.156Z,58.29
2023-04-06T02:47:06.231Z,57.95
2023-04-06T02:49:38.184Z,58.03
2023-04-06T02:52:09.761Z,58.37
2023-04-06T02:54:41.266Z,58.54
2023-04-06T02:57:12.770Z,58.67
2023-04-06T02:59:44.487Z,58.53
2023-04-06T03:02:16.392Z,58.38
2023-04-06T03:04:48.263Z,58.67
2023-04-06T03:07:19.840Z,58.83
2023-04-06T03:09:51.868Z,59.18
2023-04-06T03:12:23.487Z,59.52
2023-04-06T03:14:57.747Z,59.96
2023-04-06T03:17:29.291Z,59.60
2023-04-06T03:20:01.145Z,59.86
2023-04-06T03:22:32.714Z,59.52
2023-04-06T03:25:05.056Z,59.72
2023-04-06T03:27:36.695Z,59.63
2023-04-06T03:30:08.765Z,59.82
2023-04-06T03:32:40.597Z,59.65
2023-04-06T03:35:14.455Z,59.84
2023-04-06T03:37:46.210Z,59.63
2023-04-06T03:40:17.735Z,60.03
2023-04-06T03:42:49.260Z,59.88
2023-04-06T03:45:20.909Z,60.26
2023-04-06T03:47:52.483Z,59.76
2023-04-06T03:50:24.239Z,60.01
2023-04-06T03:52:56.364Z,60.42
2023-04-06T03:55:27.880Z,59.82
2023-04-06T03:57:59.496Z,59.75
2023-04-06T04:00:31.006Z,60.05
2023-04-06T04:03:03.485Z,60.29
2023-04-06T04:05:35.350Z,60.42
2023-04-06T04:08:07.022Z,60.69
2023-04-06T04:10:38.574Z,60.50
2023-04-06T04:13:10.307Z,60.82
2023-04-06T04:15:41.792Z,61.31
2023-04-06T04:18:13.643Z,61.47
2023-04-06T04:20:45.284Z,61.26
2023-04-06T04:23:16.846Z,61.34
2023-04-06T04:25:48.437Z,61.22
2023-04-06T04:28:19.993Z,61.58
2023-04-06T04:30:51.478Z,61.64
2023-04-06T04:33:23.939Z,61.86
2023-04-06T04:35:55.537Z,62.30
2023-04-06T04:38:27.074Z,61.92
2023-04-06T04:40:58.604Z,61.78
2023-04-06T04:43:32.688Z,62.16
2023-04-06T04:46:06.835Z,62.32
2023-04-06T04:48:39.839Z,62.19
2023-04-06T04:51:12.617Z,62.03
2023-04-06T04:53:44.114Z,62.54
2023-04-06T04:56:15.794Z,62.35
2023-04-06T04:58:47.253Z,62.23
2023-04-06T05:01:18.869Z,62.27
2023-04-06T05:03:52.158Z,62.40
2023-04-06T05:06:23.807Z,62.71
2023-04-06T05:08:55.574Z,62.40
2023-04-06T05:11:27.405Z,62.34
2023-04-06T05:14:01.670Z,62.49
2023-04-06T05:16:35.002Z,62.08
2023-04-06T05:19:06.862Z,61.88
2023-04-06T05:21:38.877Z,62.41
2023-04-06T05:24:10.695Z,62.38
2023-04-06T05:26:42.715Z,61.57
2023-04-06T05:29:14.364Z,61.80
2023-04-06T05:31:46.168Z,61.77
2023-04-06T05:34:17.967Z,61.43
2023-04-06T05:36:49.531Z,61.59
2023-04-06T05:39:21.277Z,60.79
2023-04-06T05:41:52.868Z,61.16
2023-04-06T05:44:24.420Z,61.54
2023-04-06T05:46:56.208Z,61.11
2023-04-06T05:49:27.951Z,60.94
2023-04-06T05:51:59.483Z,60.77
2023-04-06T05:54:31.567Z,60.67
2023-04-06T05:57:04.280Z,60.64
2023-04-06T05:59:36.327Z,60.47
2023-04-06T06:02:07.936Z,60.28
2023-04-06T06:04:39.566Z,60.20
2023-04-06T06:07:11.225Z,60.13
2023-04-06T06:09:42.830Z,60.05
2023-04-06T06:12:14.748Z,59.48
2023-04-06T06:14:46.598Z,59.30
2023-04-06T06:17:18.190Z,58.62
2023-04-06T06:19:49.837Z,58.08
2023-04-06T06:22:21.484Z,57.77
2023-04-06T06:24:53.063Z,57.04
2023-04-06T06:27:24.686Z,56.28
2023-04-06T06:29:56.694Z,57.30
2023-04-06T06:32:28.377Z,57.07
2023-04-06T06:35:00.197Z,55.66
2023-04-06T06:37:31.826Z,55.82
2023-04-06T06:40:03.873Z,54.14
2023-04-06T06:42:35.746Z,54.39
2023-04-06T06:45:08.465Z,54.13
2023-04-06T06:47:40.137Z,53.87
2023-04-06T06:50:11.923Z,53.89
2023-04-06T06:52:44.037Z,54.37
2023-04-06T06:55:16.416Z,53.44
2023-04-06T06:57:48.069Z,52.99
2023-04-06T07:00:21.766Z,53.30
2023-04-06T07:02:53.402Z,52.09
2023-04-06T07:05:28.737Z,52.79
2023-04-06T07:08:00.920Z,52.73
2023-04-06T07:10:32.744Z,51.39
2023-04-06T07:13:04.295Z,51.24
2023-04-06T07:15:35.985Z,52.11
2023-04-06T07:18:07.663Z,51.74
2023-04-06T07:20:39.517Z,50.47
2023-04-06T07:23:11.165Z,50.57
2023-04-06T07:25:43.112Z,51.86
2023-04-06T07:28:14.771Z,49.93
2023-04-06T07:30:46.375Z,49.09
2023-04-06T07:33:18.106Z,49.66
2023-04-06T07:35:49.784Z,48.22
2023-04-06T07:38:21.363Z,48.54
2023-04-06T07:40:53.041Z,47.26
2023-04-06T07:43:24.858Z,46.73
2023-04-06T07:45:58.239Z,46.69
2023-04-06T07:48:29.919Z,46.27
2023-04-06T07:51:05.987Z,45.86
2023-04-06T07:53:37.527Z,45.97
2023-04-06T07:56:09.788Z,46.60
2023-04-06T07:58:41.336Z,45.94
2023-04-06T08:01:12.984Z,44.09
2023-04-06T08:03:44.889Z,43.94
2023-04-06T08:06:17.063Z,44.40
2023-04-06T08:08:48.628Z,42.41
2023-04-06T08:11:22.936Z,42.67
2023-04-06T08:13:57.544Z,41.70
2023-04-06T08:16:29.079Z,40.87
2023-04-06T08:19:00.662Z,41.67
2023-04-06T08:21:32.255Z,41.21
2023-04-06T08:24:04.542Z,41.77
2023-04-06T08:26:36.277Z,42.39
2023-04-06T08:29:10.660Z,40.95
2023-04-06T08:31:42.291Z,40.10
2023-04-06T08:34:14.536Z,42.04
2023-04-06T08:36:48.194Z,41.45
2023-04-06T08:39:26.138Z,39.83
2023-04-06T08:41:58.976Z,40.06
2023-04-06T08:44:32.951Z,40.07
2023-04-06T08:47:06.293Z,40.87
2023-04-06T08:49:39.889Z,39.45
2023-04-06T08:52:11.956Z,37.79
2023-04-06T08:54:43.511Z,38.14
2023-04-06T08:57:16.394Z,39.49
2023-04-06T08:59:48.713Z,39.15
2023-04-06T09:02:21.563Z,39.49
2023-04-06T09:04:54.658Z,38.06
2023-04-06T09:07:26.418Z,38.94
2023-04-06T09:09:58.058Z,38.26
2023-04-06T09:12:31.393Z,37.02
2023-04-06T09:15:03.389Z,36.26
2023-04-06T09:17:35.113Z,37.03
2023-04-06T09:20:07.219Z,36.59
2023-04-06T09:22:43.414Z,36.55
2023-04-06T09:25:21.785Z,37.33
2023-04-06T09:28:05.502Z,37.40
2023-04-06T09:30:37.306Z,37.99
2023-04-06T09:33:09.000Z,37.94
2023-04-06T09:35:40.992Z,38.30
2023-04-06T09:38:13.318Z,37.40
2023-04-06T09:41:00.794Z,37.70
2023-04-06T09:43:32.715Z,37.00
2023-04-06T09:46:05.658Z,35.96
2023-04-06T09:48:38.171Z,36.90
2023-04-06T09:51:15.968Z,35.45
2023-04-06T09:53:53.153Z,36.80
2023-04-06T09:56:28.333Z,36.67
2023-04-06T09:59:06.532Z,36.16
2023-04-06T10:01:40.236Z,36.87
2023-04-06T10:04:47.184Z,38.40
2023-04-06T10:07:19.345Z,38.14
2023-04-06T10:09:52.246Z,34.00
2023-04-06T10:12:23.899Z,34.29
2023-04-06T10:14:56.993Z,35.81
2023-04-06T10:17:28.580Z,34.62
2023-04-06T10:20:17.459Z,33.26
2023-04-06T10:22:54.967Z,33.94
2023-04-06T10:25:35.452Z,33.78
2023-04-06T10:28:08.364Z,33.50
2023-04-06T10:30:44.582Z,33.91
2023-04-06T10:33:20.827Z,33.46
2023-04-06T10:35:52.791Z,33.33
2023-04-06T10:38:41.870Z,33.58
2023-04-06T10:41:14.029Z,32.79
2023-04-06T10:43:47.502Z,32.99
2023-04-06T10:46:27.068Z,33.20
2023-04-06T10:48:59.357Z,33.83
2023-04-06T10:51:32.049Z,34.19
2023-04-06T10:54:06.116Z,33.80
2023-04-06T10:56:40.081Z,34.03
2023-04-06T10:59:12.093Z,33.95
2023-04-06T11:01:46.571Z,34.03
2023-04-06T11:04:19.514Z,33.41
2023-04-06T11:06:52.101Z,32.43
2023-04-06T11:09:27.401Z,31.89
2023-04-06T11:11:59.157Z,32.47
2023-04-06T11:14:30.833Z,31.81
2023-04-06T11:17:02.735Z,32.29
2023-04-06T11:19:35.608Z,32.71
2023-04-06T11:22:10.398Z,33.58
2023-04-06T11:24:41.934Z,33.62
2023-04-06T11:27:16.056Z,33.17
2023-04-06T11:29:48.086Z,32.75
2023-04-06T11:32:24.588Z,32.67
2023-04-06T11:34:58.929Z,33.40
2023-04-06T11:37:30.514Z,32.41
2023-04-06T11:40:02.115Z,32.90
2023-04-06T11:42:35.521Z,32.31
2023-04-06T11:45:08.476Z,32.06
2023-04-06T11:47:40.530Z,31.22
2023-04-06T11:50:14.592Z,31.74
2023-04-06T11:52:46.226Z,31.22
2023-04-06T11:55:19.928Z,29.71
2023-04-06T11:57:52.555Z,30.39
2023-04-06T12:00:25.132Z,29.77
2023-04-06T12:02:56.850Z,29.30
2023-04-06T12:05:28.914Z,28.74
2023-04-06T12:08:02.608Z,28.64
2023-04-06T12:10:35.323Z,27.54
2023-04-06T12:13:06.944Z,27.59
2023-04-06T12:15:38.492Z,27.21
2023-04-06T12:18:10.285Z,27.44
2023-04-06T12:20:41.817Z,27.26
2023-04-06T12:23:13.420Z,28.27
2023-04-06T12:25:44.962Z,27.41
2023-04-06T12:28:16.609Z,28.20
2023-04-06T12:30:48.165Z,27.03
2023-04-06T12:33:19.795Z,28.59
2023-04-06T12:35:51.571Z,27.72
2023-04-06T12:38:23.216Z,28.08
2023-04-06T12:40:54.771Z,28.50
2023-04-06T12:43:26.595Z,28.75
2023-04-06T12:45:58.292Z,27.55
2023-04-06T12:48:29.844Z,27.60
2023-04-06T12:51:03.458Z,27.20
2023-04-06T12:53:35.993Z,27.13
2023-04-06T12:56:16.709Z,28.45
2023-04-06T12:58:48.323Z,29.38
2023-04-06T13:01:20.054Z,30.47
2023-04-06T13:03:51.682Z,30.51
2023-04-06T13:06:23.265Z,29.20
2023-04-06T13:08:54.977Z,29.00
2023-04-06T13:11:28.815Z,28.62
2023-04-06T13:14:01.064Z,28.18
2023-04-06T13:16:33.258Z,27.78
2023-04-06T13:19:04.795Z,27.23
2023-04-06T13:21:36.334Z,27.31
2023-04-06T13:24:07.967Z,27.12
2023-04-06T13:26:39.500Z,26.59
2023-04-06T13:29:11.047Z,25.92
2023-04-06T13:31:42.615Z,26.37
2023-04-06T13:34:14.273Z,27.62
2023-04-06T13:36:45.898Z,28.61
2023-04-06T13:39:17.439Z,28.96
2023-04-06T13:41:49.004Z,28.13
2023-04-06T13:44:20.881Z,28.08
2023-04-06T13:46:52.457Z,27.85
2023-04-06T13:49:24.124Z,28.07
2023-04-06T13:51:55.727Z,27.62
2023-04-06T13:54:27.998Z,27.94
2023-04-06T13:56:59.342Z,28.43
2023-04-06T13:59:37.321Z,27.04
2023-04-06T14:02:10.590Z,24.46
2023-04-06T14:04:42.208Z,24.78
2023-04-06T14:07:13.815Z,25.08
2023-04-06T14:09:45.275Z,26.04
2023-04-06T14:12:16.854Z,22.63
2023-04-06T14:14:48.314Z,18.35
2023-04-06T14:17:19.631Z,16.23
2023-04-06T14:19:51.576Z,14.73
2023-04-06T14:22:22.987Z,12.76
2023-04-06T14:24:54.479Z,13.88
2023-04-06T14:27:26.168Z,15.40
2023-04-06T14:29:57.713Z,17.41
2023-04-06T14:32:29.187Z,17.24
2023-04-06T14:35:00.815Z,18.26
2023-04-06T14:37:32.340Z,20.34
2023-04-06T14:40:04.584Z,21.59
2023-04-06T14:42:37.558Z,20.88
2023-04-06T14:45:09.403Z,17.89
2023-04-06T14:47:40.914Z,17.23
2023-04-06T14:50:12.513Z,18.64
2023-04-06T14:52:44.020Z,16.96
2023-04-06T14:55:16.508Z,15.54
2023-04-06T14:57:48.031Z,13.31
2023-04-06T15:00:20.105Z,14.59
2023-04-06T15:02:51.777Z,16.73
2023-04-06T15:05:23.424Z,18.41
2023-04-06T15:07:54.907Z,18.00
2023-04-06T15:10:26.570Z,15.74
2023-04-06T15:12:58.033Z,14.66
2023-04-06T15:15:29.723Z,12.73
2023-04-06T15:18:03.449Z,12.85
2023-04-06T15:20:35.691Z,12.24
2023-04-06T15:23:07.189Z,12.09
2023-04-06T15:25:42.206Z,12.71
2023-04-06T15:28:13.933Z,16.33
2023-04-06T15:30:45.455Z,18.70
2023-04-06T15:33:17.062Z,20.26
2023-04-06T15:35:49.154Z,21.19
2023-04-06T15:38:21.820Z,22.49
2023-04-06T15:40:53.365Z,23.28
2023-04-06T15:43:24.888Z,24.69
2023-04-06T15:45:57.249Z,24.55
2023-04-06T15:48:31.858Z,23.97
2023-04-06T15:51:03.535Z,21.61
2023-04-06T15:53:36.300Z,20.97
2023-04-06T15:56:09.682Z,20.76
2023-04-06T15:58:41.625Z,20.71
2023-04-06T16:01:17.895Z,21.87
2023-04-06T16:03:49.645Z,19.39
2023-04-06T16:06:21.483Z,16.92
2023-04-06T16:08:53.045Z,15.73
2023-04-06T16:11:24.564Z,13.85
2023-04-06T16:13:56.217Z,13.11
2023-04-06T16:16:27.986Z,14.39
2023-04-06T16:18:59.521Z,17.17
2023-04-06T16:21:31.546Z,17.08
2023-04-06T16:24:03.447Z,18.91
2023-04-06T16:26:35.628Z,20.71
2023-04-06T16:29:07.334Z,21.92
2023-04-06T16:31:38.946Z,22.19
2023-04-06T16:34:10.668Z,23.42
2023-04-06T16:36:42.675Z,24.49
2023-04-06T16:39:14.349Z,24.84
2023-04-06T16:41:46.262Z,25.39
2023-04-06T16:44:17.852Z,25.95
2023-04-06T16:46:49.725Z,26.72
2023-04-06T16:49:21.291Z,27.07
2023-04-06T16:51:52.841Z,27.11
2023-04-06T16:54:24.351Z,27.48
2023-04-06T16:56:56.629Z,27.43
2023-04-06T16:59:28.376Z,28.11
2023-04-06T17:02:00.034Z,27.68
2023-04-06T17:04:31.849Z,27.77
2023-04-06T17:07:03.730Z,28.31
2023-04-06T17:09:35.326Z,28.38
2023-04-06T17:12:07.079Z,28.52
2023-04-06T17:14:38.602Z,29.14
2023-04-06T17:17:10.244Z,29.27
2023-04-06T17:19:41.826Z,29.40
2023-04-06T17:22:13.410Z,29.95
2023-04-06T17:24:44.763Z,32.42
2023-04-06T17:27:16.722Z,30.60
2023-04-06T17:29:48.113Z,30.40
2023-04-06T17:32:19.773Z,30.42
2023-04-06T17:34:51.286Z,30.52
2023-04-06T17:37:22.748Z,33.01
2023-04-06T17:39:55.005Z,34.18
2023-04-06T17:42:27.024Z,35.13
2023-04-06T17:44:59.555Z,34.83
2023-04-06T17:47:34.140Z,34.21
2023-04-06T17:50:06.312Z,35.49
2023-04-06T17:52:38.079Z,34.92
2023-04-06T17:55:09.657Z,36.49
2023-04-06T17:57:43.317Z,36.72
2023-04-06T18:00:19.937Z,37.24
2023-04-06T18:02:54.645Z,36.66
2023-04-06T18:05:28.988Z,37.54
2023-04-06T18:08:00.605Z,38.34
2023-04-06T18:10:32.183Z,38.86
2023-04-06T18:13:03.677Z,39.47
2023-04-06T18:15:38.276Z,38.92
2023-04-06T18:18:09.895Z,39.80
2023-04-06T18:20:41.834Z,40.49
2023-04-06T18:23:14.824Z,39.92
2023-04-06T18:25:46.438Z,40.07
2023-04-06T18:28:18.001Z,41.60
2023-04-06T18:30:49.534Z,41.11
2023-04-06T18:33:20.980Z,41.68
2023-04-06T18:35:52.537Z,42.38
2023-04-06T18:38:24.199Z,41.61
2023-04-06T18:40:55.815Z,40.71
2023-04-06T18:43:28.441Z,42.90
2023-04-06T18:46:00.995Z,43.09
2023-04-06T18:48:32.651Z,43.55
2023-04-06T18:51:04.296Z,43.10
2023-04-06T18:53:37.311Z,43.04
2023-04-06T18:56:18.668Z,43.19
2023-04-06T18:58:50.426Z,43.24
2023-04-06T19:01:28.434Z,43.54
2023-04-06T19:04:00.783Z,43.93
2023-04-06T19:06:33.666Z,44.17
2023-04-06T19:09:05.125Z,44.27
2023-04-06T19:11:36.908Z,44.05
2023-04-06T19:14:08.392Z,44.49
2023-04-06T19:16:43.654Z,44.33
2023-04-06T19:19:15.241Z,45.18
2023-04-06T19:21:46.898Z,44.36
2023-04-06T19:24:18.495Z,44.62
2023-04-06T19:26:50.040Z,45.17
2023-04-06T19:29:21.558Z,45.11
2023-04-06T19:31:53.328Z,45.25
2023-04-06T19:34:25.224Z,45.34
2023-04-06T19:36:57.004Z,45.16
2023-04-06T19:39:28.507Z,46.17
2023-04-06T19:42:00.050Z,45.99
2023-04-06T19:44:31.966Z,46.77
2023-04-06T19:47:03.519Z,47.44
2023-04-06T19:49:35.001Z,46.69
2023-04-06T19:52:07.825Z,47.16
2023-04-06T19:54:40.230Z,47.21
2023-04-06T19:57:11.608Z,47.32
2023-04-06T19:59:43.245Z,47.27
2023-04-06T20:02:14.922Z,47.47
2023-04-06T20:04:46.878Z,47.48
2023-04-06T20:07:18.610Z,47.92
2023-04-06T20:09:50.103Z,48.08
2023-04-06T20:12:21.629Z,48.15
2023-04-06T20:14:53.139Z,48.62
2023-04-06T20:17:24.933Z,48.63
2023-04-06T20:19:56.489Z,48.27
2023-04-06T20:22:28.100Z,47.88
2023-04-06T20:24:59.685Z,48.45
2023-04-06T20:27:31.278Z,48.83
2023-04-06T20:30:03.023Z,48.88
2023-04-06T20:32:34.682Z,48.94
2023-04-06T20:35:06.442Z,49.15
2023-04-06T20:37:38.847Z,48.96
2023-04-06T20:40:12.061Z,49.05
2023-04-06T20:42:43.998Z,49.10
2023-04-06T20:45:15.634Z,48.91
2023-04-06T20:47:47.276Z,48.79
2023-04-06T20:50:20.566Z,48.89
2023-04-06T20:52:52.091Z,49.86
2023-04-06T20:55:23.529Z,49.55
2023-04-06T20:57:55.116Z,49.70
2023-04-06T21:00:26.629Z,49.97
2023-04-06T21:02:58.255Z,49.39
2023-04-06T21:05:30.783Z,48.91
2023-04-06T21:08:02.192Z,48.19
2023-04-06T21:10:33.659Z,48.27
2023-04-06T21:13:05.360Z,48.39
2023-04-06T21:15:36.869Z,49.56
2023-04-06T21:18:08.593Z,49.74
2023-04-06T21:20:43.187Z,49.66
2023-04-06T21:23:14.731Z,49.50
2023-04-06T21:25:46.481Z,49.41
2023-04-06T21:28:18.840Z,49.91
2023-04-06T21:30:50.224Z,49.79
2023-04-06T21:33:22.024Z,50.35
2023-04-06T21:35:53.540Z,50.27
2023-04-06T21:38:25.150Z,49.68
2023-04-06T21:40:56.811Z,50.05
2023-04-06T21:43:28.634Z,50.00
2023-04-06T21:46:00.163Z,49.34
2023-04-06T21:48:31.968Z,49.11
2023-04-06T21:51:03.596Z,49.41
2023-04-06T21:53:35.239Z,48.56
2023-04-06T21:56:06.794Z,48.93
2023-04-06T21:58:38.696Z,48.35
2023-04-06T22:01:11.268Z,47.99
2023-04-06T22:03:43.226Z,47.65
2023-04-06T22:06:14.966Z,47.84
2023-04-06T22:08:48.154Z,47.96
2023-04-06T22:11:19.705Z,47.83
2023-04-06T22:13:51.239Z,47.42
2023-04-06T22:16:23.070Z,48.09
2023-04-06T22:18:54.597Z,48.17
2023-04-06T22:21:26.591Z,48.11
2023-04-06T22:23:58.141Z,47.91
2023-04-06T22:26:29.764Z,48.14
2023-04-06T22:29:01.231Z,47.67
2023-04-06T22:31:32.727Z,48.96
2023-04-06T22:34:04.291Z,48.41
2023-04-06T22:36:35.921Z,48.65
2023-04-06T22:39:07.419Z,47.94
2023-04-06T22:41:38.926Z,48.02
2023-04-06T22:44:10.446Z,48.13
2023-04-06T22:46:42.000Z,48.16
2023-04-06T22:49:13.503Z,48.37
2023-04-06T22:51:45.045Z,48.64
2023-04-06T22:54:16.603Z,49.06
2023-04-06T22:56:48.156Z,48.49
2023-04-06T22:59:19.584Z,48.66
2023-04-06T23:01:51.180Z,48.63
2023-04-06T23:04:22.834Z,48.68
2023-04-06T23:06:54.416Z,49.28
2023-04-06T23:09:26.038Z,49.89
2023-04-06T23:11:57.573Z,49.24
2023-04-06T23:14:29.026Z,49.98
2023-04-06T23:17:01.063Z,50.04
2023-04-06T23:19:32.636Z,49.73
2023-04-06T23:22:04.155Z,50.00
2023-04-06T23:24:35.783Z,50.72
2023-04-06T23:27:07.341Z,50.30
2023-04-06T23:29:38.803Z,49.88
2023-04-06T23:32:10.415Z,50.02
2023-04-06T23:34:42.042Z,50.15
2023-04-06T23:37:13.648Z,50.74
2023-04-06T23:39:45.206Z,51.10
2023-04-06T23:42:16.796Z,51.56
2023-04-06T23:44:48.223Z,51.20
2023-04-06T23:47:19.800Z,51.28
2023-04-06T23:49:51.451Z,52.25
2023-04-06T23:52:23.025Z,52.36
2023-04-06T23:54:54.486Z,52.21
2023-04-06T23:57:26.090Z,52.79
